• Join FlightAware (Why Join?)
  • Login
  • US Flag 
10:27AM EDT


 

Airport Tracker/Info


-or-


 

Live Flight TrackerFlight Track Log ✈ ASQ4633 ✈ 10-Jun-2013 ✈ KDEN - KMLI

Flight Track Log - Related Links

Times and Time Zones

All times are in EDT time to prevent confusion due to time zone crossing. See the ASQ4633 flight status page for this flight to view local times or setup timezone preferences in your user account.

Time Position Orientation Groundspeed Altitude Reporting Facility
EDT Latitude Longitude Course Direction KTS MPH feet Rate Location/Type
11:07PM 39.8833 -104.5500 85° East 201 231 7,500  Level Denver TRACON
11:08PM 39.8833 -104.4667 90° East 234 269 9,300 1,800 Climbing Denver TRACON
11:09PM 39.8747 -104.4406 113° Southeast 233 268 10,000 1,560 Climbing Denver Center
11:10PM 39.8667 -104.0754 90° East  Level FlightAware Approximate
11:10PM 39.8739 -104.3461 91° East 260 299 11,500  Level Denver Center
11:11PM 39.8667 -103.9273 90° East  Level FlightAware Approximate
11:11PM 39.8733 -104.2403 90° East 291 335 13,100  Level Denver Center
11:12PM 39.8716 -103.7802 72° East  Level FlightAware Approximate
11:12PM 39.8722 -104.1183 91° East 315 362 14,800  Level Denver Center
11:13PM 39.8900 -103.6348 85° East  Level FlightAware Approximate
11:13PM 39.8717 -104.0003 90° East 325 374 16,900  Level Denver Center
11:14PM 39.8711 -103.8822 90° East 319 367 18,500 1,380 Climbing Denver Center
11:15PM 39.8806 -103.7647 84° East 333 383 19,800 1,440 Climbing Denver Center
11:16PM 39.8942 -103.6386 82° East 342 394 21,500 1,620 Climbing Denver Center
11:17PM 39.9078 -103.5094 82° East 360 414 23,200 1,560 Climbing Denver Center
11:18PM 39.9233 -103.3803 81° East 361 415 24,800 1,320 Climbing Denver Center
11:19PM 39.9392 -103.2458 81° East 375 432 26,000 1,020 Climbing Denver Center
11:20PM 39.9547 -103.1047 82° East 393 452 27,000 1,080 Climbing Denver Center
11:21PM 39.9728 -102.9258 82° East 415 478 28,300 1,080 Climbing Denver Center
11:22PM 39.9900 -102.7725 82° East 427 491 29,300 1,020 Climbing Denver Center
11:23PM 40.0064 -102.6272 82° East 431 496 30,400 1,560 Climbing Denver Center
11:24PM 40.0236 -102.4550 83° East 428 493 32,500 1,860 Climbing Denver Center
11:25PM 40.0386 -102.3161 82° East 405 466 34,300 1,200 Climbing Denver Center
11:26PM 40.0503 -102.2011 82° East 401 461 35,000 300 Climbing Denver Center
11:27PM 40.0672 -102.0331 82° East 420 483 35,000  Level Denver Center
11:28PM 40.0742 -101.8517 87° East 449 517 35,000  Level Denver Center
11:29PM 40.0558 -101.6700 97° East 453 521 35,000  Level Denver Center
11:30PM 40.0406 -101.5153 97° East 452 520 35,000  Level Denver Center
11:31PM 40.0275 -101.3281 95° East 464 534 35,000 780 Level Denver Center
11:32PM 40.0289 -101.1692 89° East 461 531 36,600 960 Climbing Denver Center
11:33PM 40.0369 -101.0181 86° East 443 510 37,000 180 Climbing Denver Center
11:34PM 40.0428 -100.8344 88° East 452 520 37,000  Level Denver Center
11:35PM 40.0483 -100.6769 87° East 456 525 37,000  Level Denver Center
11:36PM 40.0886 -100.5017 73° East 456 525 37,000  Level Denver Center
11:37PM 40.1244 -100.3483 73° East 460 529 37,000  Level Denver Center
11:38PM 40.1689 -100.1669 72° East 469 540 37,000  Level Denver Center
11:39PM 40.2064 -100.0094 73° East 475 547 37,000  Level Denver Center
11:40PM 40.2428 -99.8544 73° East 475 547 37,000  Level Denver Center
11:41PM 40.2808 -99.6911 73° East 471 542 37,000  Level Denver Center
11:42PM 40.3261 -99.4967 73° East 467 537 37,000  Level Denver Center
11:43PM 40.3628 -99.3347 73° East 466 536 37,000  Level Denver Center
11:44PM 40.3772 -99.2717 73° East 465 535 37,000  Level Minneapolis Center
11:44PM 40.4003 -99.1742 73° East 463 533 37,000  Level Denver Center
11:45PM 40.4144 -99.1108 74° East 464 534 37,000  Level Minneapolis Center
11:46PM 40.4506 -98.9514 73° East 460 529 37,000  Level Minneapolis Center
11:47PM 40.4858 -98.7911 74° East 461 531 37,000  Level Minneapolis Center
11:48PM 40.5208 -98.6306 74° East 460 529 37,000  Level Minneapolis Center
11:49PM 40.5567 -98.4717 73° East 458 527 37,000  Level Minneapolis Center
11:50PM 40.5914 -98.3131 74° East 455 524 37,000  Level Minneapolis Center
11:51PM 40.6253 -98.1522 74° East 458 527 37,000  Level Minneapolis Center
11:52PM 40.6681 -97.9567 74° East 464 534 37,000  Level Minneapolis Center
11:53PM 40.7028 -97.7925 74° East 466 536 37,000  Level Minneapolis Center
11:54PM 40.7378 -97.6283 74° East 468 539 37,000  Level Minneapolis Center
11:55PM 40.7733 -97.4644 74° East 466 536 37,000  Level Minneapolis Center
11:56PM 40.8053 -97.3061 75° East 467 537 37,000  Level Minneapolis Center
11:57PM 40.8394 -97.1425 75° East 463 533 37,000 -60 Level Minneapolis Center
11:58PM 40.8764 -96.9661 74° East 475 547 36,900 -960 Descending Minneapolis Center
11:59PM 40.9156 -96.7717 75° East 473 544 35,100 -960 Descending Minneapolis Center
12:00AM 40.9428 -96.6011 78° East 475 547 35,000 -60 Descending Minneapolis Center
12:01AM 40.9658 -96.4267 80° East 482 555 35,000  Level Minneapolis Center
12:02AM 40.9897 -96.2525 80° East 484 557 35,000  Level Minneapolis Center
12:03AM 41.0122 -96.0786 80° East 485 558 35,000  Level Minneapolis Center
12:04AM 41.0356 -95.9042 80° East 485 558 35,000  Level Minneapolis Center
12:05AM 41.0589 -95.7292 80° East 488 562 35,000  Level Minneapolis Center
12:06AM 41.0864 -95.5181 80° East 489 563 35,000  Level Minneapolis Center
12:07AM 41.1089 -95.3422 80° East 488 562 35,000  Level Minneapolis Center
12:08AM 41.1314 -95.1650 80° East 489 563 35,000  Level Minneapolis Center
12:09AM 41.1542 -94.9881 80° East 489 563 35,000  Level Minneapolis Center
12:10AM 41.1756 -94.8100 81° East 490 564 35,000  Level Minneapolis Center
12:11AM 41.1967 -94.6319 81° East 490 564 35,000  Level Minneapolis Center
12:12AM 41.2167 -94.4536 81° East 489 563 35,000  Level Minneapolis Center
12:13AM 41.2378 -94.2753 81° East 490 564 35,000  Level Minneapolis Center
12:14AM 41.2600 -94.0858 81° East 490 564 35,000  Level Minneapolis Center
12:15AM 41.2811 -93.9089 81° East 488 562 35,000  Level Minneapolis Center
12:16AM 41.2964 -93.7311 83° East 489 563 35,000  Level Minneapolis Center
12:17AM 41.3064 -93.5506 86° East 492 566 35,000 -360 Level Minneapolis Center
12:18AM 41.3194 -93.3675 85° East 497 572 34,300 -840 Descending Minneapolis Center
12:19AM 41.3294 -93.1875 86° East 494 568 33,400 -960 Descending Minneapolis Center
12:20AM 41.3392 -93.0100 86° East 489 563 32,400 -960 Descending Minneapolis Center
12:21AM 41.3486 -92.8303 86° East 488 562 31,500 -960 Descending Minneapolis Center
12:22AM 41.3533 -92.7225 87° East 488 562 30,900 -960 Descending Chicago Center
12:23AM 41.3636 -92.5403 86° East 494 568 30,000 -1,500 Descending Chicago Center
12:24AM 41.3731 -92.3600 86° East 500 575 27,900 -2,700 Descending Chicago Center
12:25AM 41.3836 -92.1478 86° East 486 559 24,600 -2,880 Descending Chicago Center
12:26AM 41.3908 -91.9733 87° East 480 552 22,200 -2,400 Descending Chicago Center
12:27AM 41.3992 -91.8022 86° East 471 542 19,800 -2,400 Descending Chicago Center
12:30AM 41.3991 -91.4878 83° East  Level FlightAware Approximate
12:30AM 41.4186 -91.3397 83° East 406 467 12,700  Level Chicago Center
12:31AM 41.4236 -91.1844 87° East 374 430 10,700 -1,740 Descending Chicago Center
12:32AM 41.4289 -91.0625 87° East 335 386 9,300 -1,680 Descending Chicago Center
12:33AM 41.4328 -90.9489 87° East 312 359 7,400 -1,920 Descending Chicago Center
12:34AM 41.4358 -90.8456 88° East 285 328 5,500 -2,040 Descending Chicago Center
12:35AM 41.4417 -90.7517 85° East 261 300 3,400 -1,740 Descending Chicago Center
12:36AM 41.4475 -90.6636 85° East 251 289 2,100 -900 Descending Chicago Center
12:37AM 41.4500 -90.6136 86° East 182 209 1,600 -540 Descending Chicago Center